Time;durP1;ratioP1;P1;durP2;ratioP2;P2;SDS_P1;SDS_P2;PMS_P1;PMS_P2;Temp;Humidity;BMP_temperature;BMP_pressure;BME280_temperature;BME280_humidity;BME280_pressure;Samples;Min_cycle;Max_cycle;Signal;HPM_P1;HPM_P2
2021/12/20 00:01:40;;;;;;;21.77;10.80;;;2.40;99.90;;;;;;5010568;28;20180;-78
2021/12/20 00:04:06;;;;;;;19.77;10.00;;;2.30;99.90;;;;;;5008857;28;20457;-78
2021/12/20 00:06:32;;;;;;;22.20;11.43;;;2.30;99.90;;;;;;5009537;28;20685;-77
2021/12/20 00:08:57;;;;;;;21.37;11.00;;;2.30;99.90;;;;;;5024710;28;20191;-78
2021/12/20 00:11:23;;;;;;;23.07;11.90;;;2.40;99.90;;;;;;4992053;28;20447;-78
2021/12/20 00:13:49;;;;;;;25.63;12.27;;;2.40;99.90;;;;;;5008048;28;20243;-78
2021/12/20 00:16:14;;;;;;;22.10;11.53;;;2.40;99.90;;;;;;5009265;28;20650;-78
2021/12/20 00:18:42;;;;;;;24.03;11.20;;;2.40;99.90;;;;;;5007854;28;20188;-77
2021/12/20 00:21:08;;;;;;;25.60;11.80;;;2.40;99.90;;;;;;5024130;28;20205;-77
2021/12/20 00:23:34;;;;;;;19.63;11.40;;;2.30;99.90;;;;;;5009069;28;20445;-78
2021/12/20 00:25:59;;;;;;;23.10;11.53;;;2.30;99.90;;;;;;5009392;28;20422;-78
2021/12/20 00:28:25;;;;;;;19.60;9.83;;;2.40;99.90;;;;;;5009274;28;20875;-78
2021/12/20 00:30:51;;;;;;;23.40;12.20;;;2.40;99.90;;;;;;5009343;28;20182;-77
2021/12/20 00:33:17;;;;;;;21.70;11.15;;;2.30;99.90;;;;;;5025242;28;20192;-78
2021/12/20 00:35:44;;;;;;;28.20;12.38;;;2.30;99.90;;;;;;5013458;28;20501;-78
2021/12/20 00:40:54;;;;;;;22.63;12.32;;;2.50;99.90;;;;;;5013682;28;20184;-78
2021/12/20 00:43:20;;;;;;;26.35;11.88;;;2.40;99.90;;;;;;5012421;28;20190;-77
2021/12/20 00:45:45;;;;;;;15.13;9.27;;;2.40;99.90;;;;;;5013325;28;20250;-77
2021/12/20 00:48:11;;;;;;;23.33;11.20;;;2.30;99.90;;;;;;5011977;28;20222;-77
2021/12/20 00:50:40;;;;;;;21.33;10.50;;;2.20;99.90;;;;;;5011648;28;20203;-77
2021/12/20 00:53:05;;;;;;;24.75;12.07;;;2.20;99.90;;;;;;5011225;28;20198;-77
2021/12/20 00:55:31;;;;;;;22.00;11.27;;;2.10;99.90;;;;;;5013155;28;20296;-78
2021/12/20 00:57:59;;;;;;;21.27;10.27;;;2.20;99.90;;;;;;5028645;28;20479;-77
2021/12/20 01:00:28;;;;;;;20.27;10.65;;;2.10;99.90;;;;;;5028537;28;20187;-77
2021/12/20 01:02:54;;;;;;;19.92;10.40;;;2.20;99.90;;;;;;5012170;28;20270;-77
2021/12/20 01:05:22;;;;;;;18.90;10.60;;;2.20;99.90;;;;;;5013467;28;20263;-77
2021/12/20 01:07:49;;;;;;;20.17;11.27;;;2.30;99.90;;;;;;5013387;28;20753;-78
2021/12/20 01:10:18;;;;;;;20.20;10.80;;;2.30;99.90;;;;;;5028442;28;20439;-78
2021/12/20 01:12:54;;;;;;;25.23;12.38;;;2.40;99.90;;;;;;5013409;28;20236;-78
2021/12/20 01:15:24;;;;;;;32.17;13.52;;;2.40;99.90;;;;;;5013498;28;20200;-78
2021/12/20 01:17:51;;;;;;;27.35;12.98;;;2.50;99.90;;;;;;5028258;28;20756;-78
2021/12/20 01:20:17;;;;;;;31.80;13.00;;;2.50;99.90;;;;;;5013208;28;20191;-78
2021/12/20 01:22:47;;;;;;;28.67;13.73;;;2.50;99.90;;;;;;5011974;28;20192;-78
2021/12/20 01:25:14;;;;;;;25.70;13.02;;;2.50;99.90;;;;;;5028384;28;20187;-78
2021/12/20 01:27:40;;;;;;;28.25;14.00;;;2.50;99.90;;;;;;5012756;28;20203;-77
2021/12/20 01:30:09;;;;;;;33.70;14.20;;;2.50;99.90;;;;;;5012665;28;20253;-77
2021/12/20 01:32:34;;;;;;;27.92;14.05;;;2.60;99.90;;;;;;5011343;28;20445;-77
2021/12/20 01:35:00;;;;;;;29.67;14.70;;;2.60;99.90;;;;;;5027928;28;20216;-78
2021/12/20 01:37:26;;;;;;;30.30;14.50;;;2.60;99.90;;;;;;5011718;28;20571;-78
2021/12/20 01:39:53;;;;;;;35.67;14.50;;;2.60;99.90;;;;;;5012965;28;20272;-80
2021/12/20 01:42:20;;;;;;;30.38;13.85;;;2.60;99.90;;;;;;5011348;28;20220;-78
2021/12/20 01:44:49;;;;;;;27.23;13.55;;;2.60;99.90;;;;;;5012561;28;20652;-77
2021/12/20 01:47:15;;;;;;;34.78;15.20;;;2.60;99.90;;;;;;5010759;28;20633;-77
2021/12/20 01:49:57;;;;;;;34.20;15.10;;;2.60;99.90;;;;;;5010748;28;20231;-77
2021/12/20 01:52:25;;;;;;;34.17;15.77;;;2.40;99.90;;;;;;5027038;28;20234;-78
2021/12/20 01:54:50;;;;;;;35.67;15.52;;;2.70;99.90;;;;;;5027456;28;20242;-77
2021/12/20 01:57:16;;;;;;;40.20;17.27;;;2.50;99.90;;;;;;5010957;28;20200;-77
2021/12/20 01:59:42;;;;;;;31.93;15.93;;;2.50;99.90;;;;;;5010869;28;20200;-77
2021/12/20 02:02:08;;;;;;;37.70;17.13;;;2.50;99.90;;;;;;5012541;28;20214;-77
2021/12/20 02:04:43;;;;;;;32.03;16.25;;;2.50;99.90;;;;;;5011352;28;20216;-77
2021/12/20 02:07:19;;;;;;;34.35;15.85;;;2.50;99.90;;;;;;5010573;28;20259;-78
2021/12/20 02:09:45;;;;;;;30.50;14.80;;;2.50;99.90;;;;;;5009823;28;20696;-78
2021/12/20 02:12:11;;;;;;;30.30;15.27;;;2.50;99.90;;;;;;5011418;28;20200;-78
2021/12/20 02:14:36;;;;;;;32.87;16.00;;;2.60;99.90;;;;;;5010440;28;20274;-78
2021/12/20 02:17:02;;;;;;;31.80;15.10;;;2.50;99.90;;;;;;5010120;28;20213;-77
2021/12/20 02:19:28;;;;;;;34.83;14.97;;;2.50;99.90;;;;;;5012110;28;20420;-78
2021/12/20 02:21:53;;;;;;;36.53;16.27;;;2.40;99.90;;;;;;4994298;28;20653;-78
2021/12/20 02:24:19;;;;;;;30.93;14.53;;;2.40;99.90;;;;;;5010231;28;20182;-76
2021/12/20 02:26:45;;;;;;;26.27;13.97;;;2.30;99.90;;;;;;5010103;28;20214;-77
2021/12/20 02:29:11;;;;;;;31.80;15.13;;;2.40;99.90;;;;;;5011198;28;20190;-77
2021/12/20 02:39:40;;;;;;;26.17;14.70;;;2.40;99.90;;;;;;5011212;28;20190;-78
2021/12/20 02:42:07;;;;;;;27.05;13.85;;;2.40;99.90;;;;;;5026163;28;20198;-79
2021/12/20 02:44:32;;;;;;;22.13;12.15;;;2.50;99.90;;;;;;5010987;28;20209;-77
2021/12/20 02:49:27;;;;;;;24.38;13.13;;;2.30;99.90;;;;;;5010938;28;20187;-78
2021/12/20 02:51:58;;;;;;;28.83;13.65;;;2.20;99.90;;;;;;5009460;28;20235;-79
2021/12/20 02:54:24;;;;;;;27.80;13.70;;;2.30;99.90;;;;;;5025666;28;20602;-78
2021/12/20 02:56:50;;;;;;;29.60;14.53;;;2.30;99.90;;;;;;5010420;28;20232;-78
2021/12/20 02:59:18;;;;;;;26.75;12.85;;;2.30;99.90;;;;;;5009388;28;20481;-78
2021/12/20 03:01:57;;;;;;;23.58;12.00;;;2.30;99.90;;;;;;5008654;28;20219;-78
2021/12/20 03:04:23;;;;;;;25.38;12.57;;;2.40;99.90;;;;;;5010004;28;20220;-78
2021/12/20 03:06:55;;;;;;;20.63;12.40;;;2.40;99.90;;;;;;5008716;28;20215;-77
2021/12/20 03:09:27;;;;;;;24.35;13.43;;;2.30;99.90;;;;;;5010414;28;20184;-77
2021/12/20 03:11:55;;;;;;;29.58;13.75;;;2.30;99.90;;;;;;5008743;28;20257;-78
2021/12/20 03:14:28;;;;;;;27.55;12.73;;;2.30;99.90;;;;;;5010030;28;20203;-78
2021/12/20 03:16:56;;;;;;;23.58;12.07;;;2.30;99.90;;;;;;5008482;28;20225;-77
2021/12/20 03:19:21;;;;;;;20.48;12.70;;;2.30;99.90;;;;;;5009562;28;20189;-77
2021/12/20 03:21:48;;;;;;;20.53;11.80;;;2.40;99.90;;;;;;5010005;28;20182;-78
2021/12/20 03:24:13;;;;;;;26.92;12.55;;;2.40;99.90;;;;;;5009978;28;20606;-78
2021/12/20 03:26:39;;;;;;;26.43;13.53;;;2.40;99.90;;;;;;5025001;28;20242;-77
2021/12/20 03:29:05;;;;;;;26.37;12.40;;;2.50;99.90;;;;;;5008884;28;20541;-77
2021/12/20 03:31:31;;;;;;;24.75;13.60;;;2.50;99.90;;;;;;5024733;28;20198;-77
2021/12/20 03:33:58;;;;;;;34.67;14.40;;;2.50;99.90;;;;;;5008523;28;20675;-78
2021/12/20 03:36:24;;;;;;;26.63;12.13;;;2.50;99.90;;;;;;5009543;28;20433;-77
2021/12/20 03:38:49;;;;;;;32.20;14.45;;;2.40;99.90;;;;;;5009692;28;20190;-77
2021/12/20 03:41:15;;;;;;;28.23;13.30;;;2.40;99.90;;;;;;5009796;28;20809;-78
2021/12/20 03:43:41;;;;;;;31.40;14.68;;;2.30;99.90;;;;;;5009410;28;20184;-78
2021/12/20 03:46:07;;;;;;;29.80;14.00;;;2.40;99.90;;;;;;5010040;28;20952;-78
2021/12/20 03:48:33;;;;;;;31.13;14.97;;;2.40;99.90;;;;;;5009985;28;20571;-77
2021/12/20 03:51:01;;;;;;;31.48;13.98;;;2.40;99.90;;;;;;5009952;28;20225;-78
2021/12/20 03:53:28;;;;;;;32.63;15.63;;;2.40;99.90;;;;;;5009765;28;20677;-77
2021/12/20 03:55:54;;;;;;;30.70;14.88;;;2.40;99.90;;;;;;5024690;28;20213;-78
2021/12/20 03:58:20;;;;;;;26.87;14.10;;;2.40;99.90;;;;;;5011211;28;20255;-76
2021/12/20 04:00:46;;;;;;;26.83;13.90;;;2.30;99.90;;;;;;5008308;28;20936;-78
2021/12/20 04:03:14;;;;;;;31.65;14.95;;;2.30;99.90;;;;;;5010484;28;20212;-77
2021/12/20 04:05:40;;;;;;;32.78;14.40;;;2.40;99.90;;;;;;5010463;28;20678;-78
2021/12/20 04:08:06;;;;;;;32.28;16.45;;;2.40;99.90;;;;;;5014883;28;20206;-78
2021/12/20 04:10:32;;;;;;;27.23;13.90;;;2.50;99.90;;;;;;5026181;28;20743;-78
2021/12/20 04:12:58;;;;;;;33.05;15.07;;;2.50;99.90;;;;;;5010802;28;20183;-79
2021/12/20 04:15:24;;;;;;;34.00;15.90;;;2.50;99.90;;;;;;5010742;28;20288;-78
2021/12/20 04:17:50;;;;;;;28.43;15.23;;;2.50;99.90;;;;;;5008479;28;20223;-78
2021/12/20 04:20:15;;;;;;;24.43;13.50;;;2.50;99.90;;;;;;5009848;28;20219;-78
2021/12/20 04:22:41;;;;;;;25.07;13.87;;;2.50;99.90;;;;;;5009471;28;20825;-78
2021/12/20 04:25:07;;;;;;;27.00;13.77;;;2.50;99.90;;;;;;5024635;28;20214;-78
2021/12/20 04:27:33;;;;;;;34.42;14.70;;;2.50;99.90;;;;;;5009697;28;20212;-78
2021/12/20 04:29:59;;;;;;;29.00;14.85;;;2.50;99.90;;;;;;5010155;28;20241;-78
2021/12/20 04:32:25;;;;;;;24.43;12.53;;;2.50;99.90;;;;;;4992862;28;20560;-77
2021/12/20 04:34:51;;;;;;;31.87;14.43;;;2.60;99.90;;;;;;5010705;28;20650;-77
2021/12/20 04:37:16;;;;;;;33.77;15.63;;;2.50;99.90;;;;;;5010604;28;20213;-79
2021/12/20 04:39:42;;;;;;;35.23;16.03;;;2.50;99.90;;;;;;5009376;28;20179;-78
2021/12/20 04:42:08;;;;;;;36.97;16.57;;;2.60;99.90;;;;;;5010578;28;20189;-77
2021/12/20 04:44:34;;;;;;;53.23;16.97;;;2.50;99.90;;;;;;5009065;28;20220;-79
2021/12/20 04:47:01;;;;;;;37.85;16.83;;;2.50;99.90;;;;;;5029255;28;20527;-79
2021/12/20 04:49:26;;;;;;;40.08;16.83;;;2.60;99.90;;;;;;5011711;28;20228;-79
2021/12/20 04:51:54;;;;;;;42.80;17.03;;;2.50;99.90;;;;;;5011781;28;20199;-79
2021/12/20 04:54:20;;;;;;;40.20;16.10;;;2.40;99.90;;;;;;5009752;28;20209;-79
2021/12/20 04:56:46;;;;;;;40.67;17.10;;;2.50;99.90;;;;;;5010529;28;20489;-78
2021/12/20 04:59:12;;;;;;;37.10;16.57;;;2.50;99.90;;;;;;5013025;28;20261;-77
2021/12/20 05:01:38;;;;;;;51.27;17.83;;;2.40;99.90;;;;;;5011584;28;20425;-78
2021/12/20 05:04:03;;;;;;;45.37;18.37;;;2.40;99.90;;;;;;5010906;28;20661;-79
2021/12/20 05:06:33;;;;;;;46.73;19.00;;;2.30;99.90;;;;;;5011440;28;20228;-79
2021/12/20 05:09:00;;;;;;;38.08;16.25;;;2.20;99.90;;;;;;5009246;28;20183;-77
2021/12/20 05:11:28;;;;;;;39.80;17.98;;;2.30;99.90;;;;;;5007889;28;20197;-77
2021/12/20 05:13:54;;;;;;;39.60;17.77;;;2.30;99.90;;;;;;5024444;28;20226;-77
2021/12/20 05:16:20;;;;;;;49.53;21.27;;;2.30;99.90;;;;;;5009166;28;20231;-77
2021/12/20 05:18:46;;;;;;;42.92;17.15;;;2.30;99.90;;;;;;5009427;28;20266;-77
2021/12/20 05:21:12;;;;;;;38.75;17.92;;;2.30;99.90;;;;;;5013174;28;20189;-78
2021/12/20 05:23:38;;;;;;;43.17;18.23;;;2.30;99.90;;;;;;5013634;28;20670;-77
2021/12/20 05:26:04;;;;;;;44.40;22.27;;;2.30;99.90;;;;;;5011450;28;20417;-78
2021/12/20 05:28:29;;;;;;;45.70;22.70;;;2.30;99.90;;;;;;5012358;28;20203;-77
2021/12/20 05:30:55;;;;;;;40.43;19.53;;;2.30;99.90;;;;;;5010768;28;20195;-77
2021/12/20 05:33:22;;;;;;;39.20;17.03;;;2.30;99.90;;;;;;5010857;28;20190;-77
2021/12/20 05:35:48;;;;;;;40.17;18.35;;;2.30;99.90;;;;;;5012258;28;20210;-78
2021/12/20 05:38:13;;;;;;;34.37;16.27;;;2.30;99.90;;;;;;5012156;28;20219;-78
2021/12/20 05:40:39;;;;;;;30.90;16.30;;;2.30;99.90;;;;;;5012390;28;20421;-77
2021/12/20 05:43:05;;;;;;;31.90;15.00;;;2.30;99.90;;;;;;5012750;28;20237;-77
2021/12/20 05:45:31;;;;;;;34.97;15.70;;;2.20;99.90;;;;;;5013048;28;20481;-77
2021/12/20 05:47:57;;;;;;;33.77;15.13;;;2.20;99.90;;;;;;5012786;28;20322;-78
2021/12/20 05:50:23;;;;;;;30.70;16.17;;;2.20;99.90;;;;;;5014564;28;20259;-79
2021/12/20 05:52:49;;;;;;;29.23;14.75;;;2.20;99.90;;;;;;5016593;28;20179;-79
2021/12/20 05:55:16;;;;;;;28.17;13.80;;;2.30;99.90;;;;;;5031024;28;20285;-79
2021/12/20 05:57:42;;;;;;;26.88;12.68;;;2.20;99.90;;;;;;5016564;28;20203;-79
2021/12/20 06:00:14;;;;;;;26.00;13.40;;;2.20;99.90;;;;;;5017100;28;20981;-79
2021/12/20 06:02:45;;;;;;;30.55;14.35;;;2.30;99.90;;;;;;5015337;28;20446;-78
2021/12/20 06:05:11;;;;;;;27.17;12.98;;;2.30;99.90;;;;;;5014741;28;20200;-79
2021/12/20 06:07:40;;;;;;;27.15;13.68;;;2.30;99.90;;;;;;5014292;28;20207;-79
2021/12/20 06:10:11;;;;;;;23.75;12.95;;;2.30;99.90;;;;;;5015713;28;20193;-78
2021/12/20 06:12:37;;;;;;;24.50;12.65;;;2.30;99.90;;;;;;5014752;28;20196;-78
2021/12/20 06:15:03;;;;;;;24.67;12.30;;;2.20;99.90;;;;;;5013259;28;20294;-78
2021/12/20 06:17:29;;;;;;;31.55;15.18;;;2.30;99.90;;;;;;5013764;28;20198;-77
2021/12/20 06:19:55;;;;;;;29.77;16.63;;;2.40;99.90;;;;;;5014284;28;20190;-78
2021/12/20 06:22:20;;;;;;;33.43;16.47;;;2.50;99.90;;;;;;5014805;28;20248;-78
2021/12/20 06:24:46;;;;;;;28.97;15.10;;;2.40;99.90;;;;;;5014619;28;20212;-79
2021/12/20 06:27:12;;;;;;;33.33;15.77;;;2.40;99.90;;;;;;5012969;28;20272;-77
2021/12/20 06:29:37;;;;;;;25.40;14.27;;;2.40;99.90;;;;;;5013395;28;20193;-78
2021/12/20 06:32:03;;;;;;;35.67;16.83;;;2.40;99.90;;;;;;5012315;28;20553;-78
2021/12/20 06:34:29;;;;;;;24.83;13.73;;;2.40;99.90;;;;;;5028055;28;20218;-78
2021/12/20 06:36:55;;;;;;;22.90;12.03;;;2.40;99.90;;;;;;5013251;28;20303;-77
2021/12/20 06:39:22;;;;;;;24.20;12.80;;;2.40;99.90;;;;;;5010890;28;21179;-76
2021/12/20 06:41:49;;;;;;;22.25;12.35;;;2.40;99.90;;;;;;5013138;28;20202;-78
2021/12/20 06:44:15;;;;;;;18.27;11.13;;;2.40;99.90;;;;;;5010271;28;20299;-76
2021/12/20 06:46:41;;;;;;;19.83;11.20;;;2.30;99.90;;;;;;5012194;28;20817;-77
2021/12/20 06:49:09;;;;;;;25.80;12.15;;;2.30;99.90;;;;;;5012915;28;20190;-78
2021/12/20 06:51:42;;;;;;;18.45;11.48;;;2.30;99.90;;;;;;5013350;28;20206;-78
2021/12/20 06:54:12;;;;;;;20.17;11.48;;;2.40;99.90;;;;;;5028425;28;20217;-76
2021/12/20 06:56:38;;;;;;;25.55;11.85;;;2.40;99.90;;;;;;5011375;28;20208;-79
2021/12/20 06:59:04;;;;;;;26.43;12.80;;;2.40;99.90;;;;;;5012878;28;20192;-77
2021/12/20 07:01:30;;;;;;;21.33;12.73;;;2.40;99.90;;;;;;5014420;28;20412;-78
2021/12/20 07:03:56;;;;;;;18.15;11.77;;;2.40;99.90;;;;;;5013294;28;20623;-79
2021/12/20 07:06:21;;;;;;;25.33;13.40;;;2.40;99.90;;;;;;5014821;28;20215;-78
2021/12/20 07:08:47;;;;;;;22.70;13.63;;;2.40;99.90;;;;;;5012220;28;20187;-75
2021/12/20 07:11:13;;;;;;;23.63;12.20;;;2.50;99.90;;;;;;5014563;28;20199;-77
2021/12/20 07:13:39;;;;;;;23.30;12.20;;;2.60;99.90;;;;;;5014940;28;20269;-79
2021/12/20 07:16:06;;;;;;;22.27;14.32;;;2.60;99.90;;;;;;5014003;28;20194;-78
2021/12/20 07:18:33;;;;;;;42.90;17.90;;;2.50;99.90;;;;;;5014173;28;20183;-78
2021/12/20 07:20:59;;;;;;;48.47;21.17;;;2.50;99.90;;;;;;5014659;28;20187;-80
2021/12/20 07:23:24;;;;;;;35.07;18.00;;;2.60;99.90;;;;;;5014605;28;20576;-79
2021/12/20 07:25:51;;;;;;;47.60;19.93;;;2.50;99.90;;;;;;5014653;28;20193;-77
2021/12/20 07:28:17;;;;;;;58.70;22.80;;;2.60;99.90;;;;;;5028101;28;20203;-79
2021/12/20 07:30:46;;;;;;;36.47;18.80;;;2.60;99.90;;;;;;5014674;28;20186;-77
2021/12/20 07:33:12;;;;;;;42.47;20.15;;;2.60;99.90;;;;;;5014126;28;20188;-78
2021/12/20 07:35:38;;;;;;;47.07;20.03;;;2.50;99.90;;;;;;5013544;28;20226;-78
2021/12/20 07:38:04;;;;;;;45.97;20.37;;;2.60;99.90;;;;;;5013600;28;20638;-78
2021/12/20 07:40:30;;;;;;;46.30;18.70;;;2.60;99.90;;;;;;5014376;28;21190;-77
2021/12/20 07:42:56;;;;;;;52.60;21.83;;;2.60;99.90;;;;;;5015397;28;20457;-77
2021/12/20 07:45:23;;;;;;;39.23;18.67;;;2.50;99.90;;;;;;5014364;28;20181;-78
2021/12/20 07:47:49;;;;;;;48.60;22.35;;;2.60;99.90;;;;;;4979126;28;20456;-78
2021/12/20 07:50:16;;;;;;;44.15;20.92;;;2.60;99.90;;;;;;5011554;28;20209;-78
2021/12/20 07:52:42;;;;;;;52.60;20.90;;;2.70;99.90;;;;;;5013147;28;20187;-77
2021/12/20 07:55:09;;;;;;;50.77;21.73;;;2.70;99.90;;;;;;5012608;28;20221;-78
2021/12/20 07:57:35;;;;;;;48.80;21.40;;;2.70;99.90;;;;;;5013027;28;20858;-78
2021/12/20 08:00:00;;;;;;;47.40;22.20;;;2.70;99.90;;;;;;5011754;28;20285;-78
2021/12/20 08:02:26;;;;;;;50.43;22.83;;;2.90;99.90;;;;;;5026324;28;20412;-79
2021/12/20 08:04:52;;;;;;;44.97;21.23;;;2.70;99.90;;;;;;5026921;28;20201;-79
2021/12/20 08:07:21;;;;;;;54.67;24.03;;;2.80;99.90;;;;;;5009086;28;20614;-79
2021/12/20 08:09:47;;;;;;;43.70;20.95;;;2.80;99.90;;;;;;5025349;28;20231;-78
2021/12/20 08:12:13;;;;;;;50.60;21.92;;;2.80;99.90;;;;;;5008604;28;20197;-79
2021/12/20 08:14:39;;;;;;;44.10;20.40;;;2.80;99.90;;;;;;5008482;28;20212;-77
2021/12/20 08:17:04;;;;;;;47.37;21.10;;;2.90;99.90;;;;;;5008356;28;20212;-79
2021/12/20 08:19:30;;;;;;;45.80;20.70;;;2.90;99.90;;;;;;5010401;28;20188;-79
2021/12/20 08:21:56;;;;;;;40.83;19.53;;;3.00;99.90;;;;;;5010026;28;20188;-77
2021/12/20 08:24:22;;;;;;;43.10;21.73;;;3.00;99.90;;;;;;4992181;28;20272;-78
2021/12/20 08:26:48;;;;;;;41.43;21.23;;;3.00;99.90;;;;;;5024905;28;20317;-79
2021/12/20 08:29:14;;;;;;;48.80;21.50;;;3.00;99.90;;;;;;5024670;28;20290;-79
2021/12/20 08:31:40;;;;;;;52.63;23.13;;;3.00;99.90;;;;;;4993372;28;20518;-78
2021/12/20 08:34:05;;;;;;;37.57;20.60;;;3.00;99.90;;;;;;5012900;28;20227;-77
2021/12/20 08:36:32;;;;;;;45.97;20.93;;;3.00;99.90;;;;;;5034534;28;20604;-79
2021/12/20 08:38:57;;;;;;;49.47;20.90;;;3.10;99.90;;;;;;5035695;28;20197;-76
2021/12/20 08:41:23;;;;;;;38.37;19.47;;;3.10;99.90;;;;;;5042181;28;20568;-78
2021/12/20 08:43:49;;;;;;;40.70;19.93;;;3.20;99.90;;;;;;5038454;28;20345;-79
2021/12/20 08:46:15;;;;;;;37.50;19.47;;;3.20;99.90;;;;;;5030595;28;21256;-79
2021/12/20 08:48:42;;;;;;;39.88;19.92;;;3.40;99.90;;;;;;5034418;28;20195;-77
2021/12/20 08:51:09;;;;;;;39.88;19.02;;;3.20;99.90;;;;;;5043573;28;20573;-77
2021/12/20 08:53:36;;;;;;;35.13;18.15;;;3.20;99.90;;;;;;5035665;28;20685;-77
2021/12/20 08:56:02;;;;;;;34.58;19.02;;;3.20;99.90;;;;;;5041310;28;20404;-78
2021/12/20 08:58:27;;;;;;;42.08;20.40;;;3.20;99.90;;;;;;5047528;28;20221;-77
2021/12/20 09:00:54;;;;;;;48.43;23.23;;;3.30;99.90;;;;;;5022466;28;20216;-77
2021/12/20 09:03:20;;;;;;;38.07;19.00;;;3.40;99.90;;;;;;5050171;28;20765;-78
2021/12/20 09:05:47;;;;;;;33.28;17.55;;;3.40;99.90;;;;;;5042605;28;20490;-77
2021/12/20 09:08:15;;;;;;;32.85;17.02;;;3.50;99.90;;;;;;5043378;28;20210;-77
2021/12/20 09:10:40;;;;;;;32.27;16.37;;;3.40;99.90;;;;;;5039673;28;20318;-77
2021/12/20 09:13:06;;;;;;;35.53;18.30;;;3.50;99.90;;;;;;5047465;28;20526;-77
2021/12/20 09:15:33;;;;;;;34.90;17.40;;;3.70;99.90;;;;;;5042867;28;20333;-78
2021/12/20 09:17:59;;;;;;;40.58;18.77;;;3.60;99.90;;;;;;5046538;28;20450;-78
2021/12/20 09:20:26;;;;;;;38.70;19.20;;;3.60;99.90;;;;;;5048147;28;20203;-77
2021/12/20 09:22:53;;;;;;;39.70;19.98;;;3.60;99.90;;;;;;5045227;28;20675;-78
2021/12/20 09:25:23;;;;;;;38.90;18.97;;;3.60;99.90;;;;;;5041332;28;20206;-78
2021/12/20 09:27:49;;;;;;;37.03;19.07;;;3.60;99.90;;;;;;5046934;28;21094;-78
2021/12/20 09:30:17;;;;;;;45.30;19.80;;;3.60;99.90;;;;;;5047034;28;20527;-76
2021/12/20 09:32:42;;;;;;;36.87;17.73;;;3.70;99.90;;;;;;5043485;28;20198;-77
2021/12/20 09:35:09;;;;;;;44.33;19.63;;;3.70;99.90;;;;;;5043464;28;20472;-77
2021/12/20 09:37:34;;;;;;;36.95;17.65;;;3.70;99.90;;;;;;5047258;28;20222;-78
2021/12/20 09:40:00;;;;;;;40.63;18.07;;;3.70;99.90;;;;;;5045262;28;20196;-78
2021/12/20 09:42:26;;;;;;;44.95;19.63;;;3.70;99.90;;;;;;5044625;28;20183;-78
2021/12/20 09:44:54;;;;;;;41.60;19.67;;;3.80;99.90;;;;;;5039331;28;20211;-77
2021/12/20 09:47:19;;;;;;;42.33;20.20;;;3.70;99.90;;;;;;5045159;28;20257;-79
2021/12/20 09:49:46;;;;;;;45.73;20.20;;;3.80;99.90;;;;;;5045130;28;20769;-78
2021/12/20 09:52:11;;;;;;;51.67;21.05;;;3.80;99.90;;;;;;5047259;28;20493;-78
2021/12/20 09:54:39;;;;;;;39.73;20.63;;;3.80;99.90;;;;;;5045060;28;20221;-77
2021/12/20 09:57:08;;;;;;;40.35;20.67;;;3.90;99.90;;;;;;5029123;28;20450;-77
2021/12/20 09:59:39;;;;;;;32.87;18.20;;;3.90;99.90;;;;;;5030517;28;20201;-78
2021/12/20 10:02:09;;;;;;;42.65;18.23;;;4.00;99.90;;;;;;5032179;28;20425;-80
2021/12/20 10:04:35;;;;;;;34.57;17.37;;;4.10;99.90;;;;;;5035894;28;20788;-79
2021/12/20 10:07:02;;;;;;;36.80;19.97;;;4.10;99.90;;;;;;5038529;28;20953;-78
2021/12/20 10:09:34;;;;;;;36.10;17.67;;;4.20;99.90;;;;;;5045930;28;20456;-80
2021/12/20 10:12:29;;;;;;;35.50;19.00;;;4.20;99.90;;;;;;5043231;28;20448;-78
2021/12/20 10:15:07;;;;;;;30.65;17.05;;;4.30;99.90;;;;;;5027828;28;20517;-77
2021/12/20 10:17:59;;;;;;;33.13;17.53;;;4.30;99.90;;;;;;5041417;28;20211;-77
2021/12/20 10:20:30;;;;;;;27.47;16.13;;;4.30;99.90;;;;;;5042159;28;20476;-78
2021/12/20 10:23:18;;;;;;;33.63;16.27;;;4.40;99.90;;;;;;5041726;28;21085;-76
2021/12/20 10:25:45;;;;;;;32.47;17.10;;;4.40;99.90;;;;;;5037199;28;20422;-78
2021/12/20 10:28:18;;;;;;;35.60;19.17;;;4.50;99.90;;;;;;5039366;28;20445;-78
2021/12/20 10:30:50;;;;;;;30.50;15.37;;;4.60;99.90;;;;;;5043683;28;20438;-78
2021/12/20 10:33:18;;;;;;;30.10;16.50;;;4.50;99.90;;;;;;5043656;28;20445;-78
2021/12/20 10:35:49;;;;;;;38.77;19.90;;;4.70;99.90;;;;;;5034426;28;20476;-78
2021/12/20 10:38:25;;;;;;;31.27;17.02;;;4.90;99.90;;;;;;5038756;28;20747;-78
2021/12/20 10:40:59;;;;;;;30.37;17.63;;;5.10;99.90;;;;;;5040015;28;20194;-76
2021/12/20 10:43:29;;;;;;;33.30;16.83;;;5.10;99.90;;;;;;5042586;28;20434;-78
2021/12/20 10:45:55;;;;;;;25.60;15.33;;;5.30;99.90;;;;;;5015585;28;20876;-76
2021/12/20 10:48:30;;;;;;;28.60;15.60;;;5.50;99.90;;;;;;5042116;28;20446;-78
2021/12/20 10:50:56;;;;;;;26.33;15.73;;;5.90;99.90;;;;;;5039961;28;20450;-77
2021/12/20 10:53:25;;;;;;;23.33;14.87;;;7.70;99.90;;;;;;5043026;28;21003;-78
2021/12/20 10:55:54;;;;;;;24.33;15.20;;;9.10;99.90;;;;;;5031869;28;20516;-76
2021/12/20 10:58:28;;;;;;;21.17;14.83;;;9.80;99.90;;;;;;5043888;28;20497;-77
2021/12/20 11:01:11;;;;;;;32.60;16.77;;;9.40;99.90;;;;;;5043395;28;20436;-77
2021/12/20 11:03:41;;;;;;;23.87;14.50;;;9.00;99.90;;;;;;5042264;28;20430;-77
2021/12/20 11:09:05;;;;;;;20.30;13.10;;;9.20;99.90;;;;;;5044615;28;21257;-76
2021/12/20 11:11:32;;;;;;;21.27;13.70;;;9.10;99.90;;;;;;5038322;28;20461;-79
2021/12/20 11:13:59;;;;;;;19.13;13.10;;;8.90;99.90;;;;;;5027386;28;20420;-76
2021/12/20 11:16:40;;;;;;;22.80;13.53;;;9.40;99.90;;;;;;5029081;28;20967;-79
2021/12/20 11:19:17;;;;;;;25.67;15.30;;;9.30;99.90;;;;;;5027891;28;20522;-78
2021/12/20 11:21:56;;;;;;;19.27;12.83;;;8.90;99.90;;;;;;5028167;28;20467;-77
2021/12/20 11:24:43;;;;;;;21.50;12.77;;;8.40;99.90;;;;;;5031558;28;20942;-79
2021/12/20 11:27:12;;;;;;;18.63;11.20;;;8.00;99.90;;;;;;5030460;28;20446;-78
2021/12/20 11:29:40;;;;;;;23.93;12.60;;;7.50;99.90;;;;;;5045262;28;20417;-75
2021/12/20 11:32:06;;;;;;;23.17;13.77;;;7.30;99.90;;;;;;5039001;28;20466;-79
2021/12/20 11:34:34;;;;;;;21.20;12.60;;;7.00;99.90;;;;;;5033076;28;20545;-80
2021/12/20 11:37:00;;;;;;;23.20;13.67;;;6.80;99.90;;;;;;5015043;28;20455;-80
2021/12/20 11:39:26;;;;;;;21.50;13.47;;;6.50;99.90;;;;;;5031748;28;20423;-80
2021/12/20 11:41:52;;;;;;;23.33;13.90;;;6.30;99.90;;;;;;5032369;28;20441;-78
2021/12/20 11:44:21;;;;;;;27.27;15.03;;;6.10;99.90;;;;;;5032858;28;20916;-80
2021/12/20 11:46:50;;;;;;;26.70;14.80;;;5.80;99.90;;;;;;5031436;28;20743;-80
2021/12/20 11:49:21;;;;;;;26.63;15.10;;;5.70;99.90;;;;;;5030452;28;20437;-80
2021/12/20 11:52:08;;;;;;;23.00;14.23;;;5.60;99.90;;;;;;5030209;28;20462;-80
2021/12/20 11:54:37;;;;;;;26.47;14.27;;;5.50;99.90;;;;;;5030542;28;20574;-79
2021/12/20 11:57:06;;;;;;;25.60;14.33;;;5.50;99.90;;;;;;5031564;28;20474;-80
2021/12/20 11:59:53;;;;;;;31.63;15.97;;;5.30;99.90;;;;;;5031450;28;20422;-80
2021/12/20 12:02:45;;;;;;;27.47;15.30;;;5.30;99.90;;;;;;5030371;28;20437;-78
2021/12/20 12:05:17;;;;;;;25.60;15.03;;;5.30;99.90;;;;;;5027481;28;20432;-80
2021/12/20 12:07:47;;;;;;;22.53;13.63;;;5.30;99.90;;;;;;5013230;28;20486;-79
2021/12/20 12:10:17;;;;;;;25.80;14.37;;;5.30;99.90;;;;;;5029954;28;20966;-77
2021/12/20 12:12:46;;;;;;;24.00;13.90;;;5.30;99.90;;;;;;5029802;28;20458;-81
2021/12/20 12:15:28;;;;;;;24.00;13.40;;;5.20;99.90;;;;;;5013012;28;20997;-80
2021/12/20 12:18:04;;;;;;;24.53;14.10;;;5.20;99.90;;;;;;5030702;28;20438;-79
2021/12/20 12:20:43;;;;;;;21.33;12.33;;;5.20;99.90;;;;;;5012354;28;20438;-78
2021/12/20 12:23:21;;;;;;;21.70;12.80;;;5.20;99.90;;;;;;5028485;28;20434;-79
2021/12/20 12:25:49;;;;;;;22.10;12.50;;;5.20;99.90;;;;;;5030064;28;20920;-79
2021/12/20 12:28:17;;;;;;;24.80;13.37;;;5.30;99.90;;;;;;5029783;28;20445;-77
2021/12/20 12:31:04;;;;;;;22.90;12.60;;;5.20;99.90;;;;;;5029854;28;20521;-79
2021/12/20 12:33:33;;;;;;;19.63;11.13;;;5.10;99.90;;;;;;5029706;28;20434;-80
2021/12/20 12:36:01;;;;;;;23.52;13.00;;;5.10;99.90;;;;;;5029303;28;20643;-80
2021/12/20 12:38:48;;;;;;;27.47;13.53;;;5.10;99.90;;;;;;5027868;28;20241;-79
2021/12/20 12:41:26;;;;;;;26.43;12.63;;;5.00;99.90;;;;;;5028796;28;20427;-81
2021/12/20 12:44:06;;;;;;;27.33;13.80;;;4.90;99.90;;;;;;5028370;28;20514;-77
2021/12/20 12:46:41;;;;;;;29.73;13.83;;;4.80;99.90;;;;;;5029737;28;20447;-81
2021/12/20 12:49:22;;;;;;;24.70;14.07;;;4.90;99.90;;;;;;5029957;28;20820;-78
2021/12/20 12:52:17;;;;;;;28.67;14.67;;;4.90;99.90;;;;;;5028029;28;20439;-81
2021/12/20 12:54:46;;;;;;;33.93;15.07;;;4.90;99.90;;;;;;5029868;28;21100;-77
2021/12/20 12:57:12;;;;;;;24.80;14.00;;;4.90;99.90;;;;;;5029371;28;20477;-78